Time;durP1;ratioP1;P1;durP2;ratioP2;P2;SDS_P1;SDS_P2;PMS_P1;PMS_P2;Temp;Humidity;BMP_temperature;BMP_pressure;BME280_temperature;BME280_humidity;BME280_pressure;Samples;Min_cycle;Max_cycle;Signal;HPM_P1;HPM_P2
2023/06/18 00:02:25;;;;;;;11.90;8.88;;;16.80;99.90;;;;;;5062489;28;20181;-79
2023/06/18 00:04:51;;;;;;;11.93;8.70;;;16.70;99.90;;;;;;5079256;28;20635;-80
2023/06/18 00:07:16;;;;;;;10.90;8.38;;;16.70;99.90;;;;;;5060318;28;20191;-80
2023/06/18 00:09:42;;;;;;;12.15;9.20;;;16.80;99.90;;;;;;5066739;28;20680;-80
2023/06/18 00:12:08;;;;;;;12.32;8.63;;;16.80;99.90;;;;;;5069026;28;20177;-80
2023/06/18 00:14:34;;;;;;;12.15;8.77;;;16.80;99.90;;;;;;5088222;28;20194;-80
2023/06/18 00:17:00;;;;;;;14.38;9.68;;;16.90;99.90;;;;;;5087250;28;20534;-80
2023/06/18 00:19:26;;;;;;;14.32;9.52;;;16.80;99.90;;;;;;5070972;28;20245;-80
2023/06/18 00:21:51;;;;;;;12.30;9.18;;;16.80;99.90;;;;;;5075180;28;20240;-80
2023/06/18 00:24:17;;;;;;;12.95;8.55;;;16.80;99.90;;;;;;5071475;28;20233;-80
2023/06/18 00:26:43;;;;;;;12.65;9.45;;;16.60;99.90;;;;;;5065701;28;20590;-80
2023/06/18 00:29:09;;;;;;;13.18;10.07;;;16.50;99.90;;;;;;5060055;28;20178;-80
2023/06/18 00:31:34;;;;;;;11.27;8.95;;;16.30;99.90;;;;;;5059966;28;20174;-80
2023/06/18 00:34:05;;;;;;;13.52;9.80;;;16.20;99.90;;;;;;5060344;28;20191;-79
2023/06/18 00:36:31;;;;;;;12.30;9.85;;;16.10;99.90;;;;;;5078661;28;20189;-80
2023/06/18 00:38:57;;;;;;;13.77;10.30;;;16.00;99.90;;;;;;5062577;28;20602;-80
2023/06/18 00:41:27;;;;;;;10.85;9.38;;;16.10;99.90;;;;;;5062939;28;20174;-80
2023/06/18 00:43:53;;;;;;;13.38;9.18;;;16.20;99.90;;;;;;5064604;28;20170;-80
2023/06/18 00:46:20;;;;;;;12.90;10.10;;;16.20;99.90;;;;;;5065625;28;20197;-80
2023/06/18 00:48:47;;;;;;;14.75;9.43;;;16.30;99.90;;;;;;5083146;28;20166;-80
2023/06/18 00:51:16;;;;;;;11.65;9.02;;;16.30;99.90;;;;;;5065501;28;20193;-80
2023/06/18 00:53:42;;;;;;;12.98;9.75;;;16.30;99.90;;;;;;5065933;28;20263;-80
2023/06/18 00:56:09;;;;;;;14.32;10.30;;;16.40;99.90;;;;;;5066036;28;20290;-80
2023/06/18 00:58:36;;;;;;;14.55;10.23;;;16.30;99.90;;;;;;5066383;28;20725;-80
2023/06/18 01:01:02;;;;;;;13.90;10.40;;;16.30;99.90;;;;;;5067291;28;20192;-80
2023/06/18 01:03:28;;;;;;;15.55;11.25;;;16.20;99.90;;;;;;5067380;28;20613;-80
2023/06/18 01:06:01;;;;;;;16.55;10.60;;;16.10;99.90;;;;;;5067645;28;20237;-80
2023/06/18 01:08:28;;;;;;;12.98;10.32;;;16.10;99.90;;;;;;5068040;28;20673;-80
2023/06/18 01:11:05;;;;;;;12.80;9.45;;;16.00;99.90;;;;;;5085636;28;20181;-80
2023/06/18 01:13:33;;;;;;;11.73;9.90;;;16.10;99.90;;;;;;5085413;28;20173;-80
2023/06/18 01:16:05;;;;;;;14.32;9.82;;;16.10;99.90;;;;;;5086302;28;20251;-80
2023/06/18 01:18:41;;;;;;;11.25;9.50;;;16.20;99.90;;;;;;5068203;28;20240;-80
2023/06/18 01:21:09;;;;;;;13.50;10.35;;;16.20;99.90;;;;;;5067855;28;20188;-80
2023/06/18 01:24:24;;;;;;;13.70;9.50;;;16.10;99.90;;;;;;5067705;28;20538;-80
2023/06/18 01:26:54;;;;;;;14.20;10.02;;;16.10;99.90;;;;;;5069281;28;20224;-80
2023/06/18 01:29:21;;;;;;;12.68;9.00;;;16.00;99.90;;;;;;5067748;28;20173;-80
2023/06/18 01:31:47;;;;;;;12.73;10.10;;;16.00;99.90;;;;;;5067529;28;20177;-80
2023/06/18 01:34:13;;;;;;;13.20;9.77;;;16.00;99.90;;;;;;5067891;28;20170;-80
2023/06/18 01:36:50;;;;;;;14.68;10.07;;;16.00;99.90;;;;;;5085963;28;20170;-80
2023/06/18 01:39:40;;;;;;;16.10;10.82;;;15.90;99.90;;;;;;5067880;28;20165;-80
2023/06/18 01:42:17;;;;;;;15.85;10.00;;;15.80;99.90;;;;;;5085768;28;20503;-80
2023/06/18 01:44:56;;;;;;;16.35;10.27;;;15.60;99.90;;;;;;5085882;28;20205;-79
2023/06/18 01:47:26;;;;;;;15.55;10.55;;;15.50;99.90;;;;;;5067695;28;20200;-80
2023/06/18 01:49:54;;;;;;;14.48;9.60;;;15.40;99.90;;;;;;5067365;28;20174;-80
2023/06/18 01:52:23;;;;;;;13.75;9.40;;;15.30;99.90;;;;;;5067875;28;20203;-80
2023/06/18 01:54:49;;;;;;;13.45;9.45;;;15.30;99.90;;;;;;5071856;28;20194;-80
2023/06/18 01:57:16;;;;;;;15.13;10.32;;;15.40;99.90;;;;;;5089893;28;20178;-80
2023/06/18 01:59:44;;;;;;;14.32;10.70;;;15.40;99.90;;;;;;5089264;28;20561;-80
2023/06/18 02:02:12;;;;;;;11.50;9.57;;;15.30;99.90;;;;;;5070793;28;20178;-80
2023/06/18 02:04:43;;;;;;;13.82;10.23;;;15.30;99.90;;;;;;5072021;28;20213;-80
2023/06/18 02:07:10;;;;;;;17.45;10.27;;;15.30;99.90;;;;;;5071068;28;20192;-80
2023/06/18 02:09:36;;;;;;;14.68;10.15;;;15.30;99.90;;;;;;5071468;28;20601;-80
2023/06/18 02:12:02;;;;;;;13.30;10.13;;;15.30;99.90;;;;;;5091822;28;20154;-81
2023/06/18 02:14:28;;;;;;;12.63;9.68;;;15.20;99.90;;;;;;5073354;28;20177;-81
2023/06/18 02:16:55;;;;;;;13.93;10.52;;;15.30;99.90;;;;;;5091431;28;20185;-81
2023/06/18 02:19:21;;;;;;;14.93;10.60;;;15.30;99.90;;;;;;5073616;28;20173;-81
2023/06/18 02:21:47;;;;;;;16.23;10.13;;;15.20;99.90;;;;;;5072909;28;20197;-81
2023/06/18 02:24:15;;;;;;;14.98;10.88;;;15.20;99.90;;;;;;5072626;28;20212;-81
2023/06/18 02:26:41;;;;;;;15.85;11.45;;;15.20;99.90;;;;;;5072473;28;20174;-81
2023/06/18 02:29:07;;;;;;;16.83;11.00;;;15.20;99.90;;;;;;5072781;28;20180;-81
2023/06/18 02:31:33;;;;;;;14.82;11.18;;;15.10;99.90;;;;;;5072809;28;20166;-81
2023/06/18 02:33:59;;;;;;;15.80;10.35;;;15.10;99.90;;;;;;5090141;28;20235;-81
2023/06/18 02:36:24;;;;;;;16.85;10.98;;;15.00;99.90;;;;;;5091132;28;20221;-81
2023/06/18 02:38:52;;;;;;;15.88;11.65;;;15.00;99.90;;;;;;5071559;28;20185;-80
2023/06/18 02:41:19;;;;;;;15.57;11.25;;;15.00;99.90;;;;;;5071629;28;20634;-81
2023/06/18 02:43:49;;;;;;;16.00;10.75;;;15.00;99.90;;;;;;5072624;28;20283;-81
2023/06/18 02:46:16;;;;;;;17.77;11.55;;;15.00;99.90;;;;;;5072031;28;20292;-81
2023/06/18 02:48:42;;;;;;;19.13;10.93;;;15.00;99.90;;;;;;5089189;28;20194;-80
2023/06/18 02:51:07;;;;;;;16.30;10.60;;;15.00;99.90;;;;;;5090290;28;20185;-81
2023/06/18 02:53:33;;;;;;;15.18;11.23;;;15.00;99.90;;;;;;5072172;28;20181;-81
2023/06/18 02:56:01;;;;;;;16.67;11.55;;;14.90;99.90;;;;;;5071385;28;20205;-81
2023/06/18 02:58:30;;;;;;;13.60;10.80;;;14.90;99.90;;;;;;5088793;28;20183;-80
2023/06/18 03:01:00;;;;;;;16.25;11.43;;;14.80;99.90;;;;;;5090137;28;20202;-79
2023/06/18 03:03:26;;;;;;;13.77;10.70;;;14.80;99.90;;;;;;5082816;28;20192;-80
2023/06/18 03:05:52;;;;;;;15.95;10.95;;;14.70;99.90;;;;;;5094345;28;20227;-81
2023/06/18 03:08:19;;;;;;;14.25;10.82;;;14.70;99.90;;;;;;5073472;28;20174;-80
2023/06/18 03:10:46;;;;;;;14.73;11.00;;;14.70;99.90;;;;;;5072631;28;20172;-81
2023/06/18 03:13:12;;;;;;;14.23;11.02;;;14.70;99.90;;;;;;5090499;28;20606;-81
2023/06/18 03:15:38;;;;;;;18.10;11.18;;;14.70;99.90;;;;;;5072449;28;20193;-81
2023/06/18 03:18:05;;;;;;;16.05;11.68;;;14.70;99.90;;;;;;5090098;28;20206;-81
2023/06/18 03:20:32;;;;;;;15.93;11.38;;;14.70;99.90;;;;;;5089492;28;20618;-81
2023/06/18 03:22:58;;;;;;;17.02;11.18;;;14.60;99.90;;;;;;5071082;28;20178;-81
2023/06/18 03:25:24;;;;;;;15.55;10.32;;;14.50;99.90;;;;;;5070221;28;20341;-81
2023/06/18 03:27:53;;;;;;;16.27;11.23;;;14.40;99.90;;;;;;5088348;28;20269;-81
2023/06/18 03:30:18;;;;;;;15.55;11.32;;;14.50;99.90;;;;;;5069426;28;20169;-81
2023/06/18 03:32:44;;;;;;;18.88;11.10;;;14.50;99.90;;;;;;5088145;28;20181;-81
2023/06/18 03:35:10;;;;;;;15.68;10.93;;;14.60;99.90;;;;;;5069946;28;20205;-81
2023/06/18 03:37:36;;;;;;;17.13;11.80;;;14.60;99.90;;;;;;5068798;28;20717;-81
2023/06/18 03:40:03;;;;;;;18.77;11.85;;;14.70;99.90;;;;;;5067820;28;20177;-81
2023/06/18 03:42:29;;;;;;;14.80;10.93;;;14.60;99.90;;;;;;5067292;28;20437;-81
2023/06/18 03:44:55;;;;;;;13.05;11.48;;;14.60;99.90;;;;;;5084147;28;20202;-81
2023/06/18 03:47:21;;;;;;;14.63;11.43;;;14.50;99.90;;;;;;5084279;28;20185;-81
2023/06/18 03:49:47;;;;;;;15.13;10.77;;;14.50;99.90;;;;;;5064570;28;20204;-81
2023/06/18 03:52:13;;;;;;;16.38;11.27;;;14.50;99.90;;;;;;5064167;28;20174;-81
2023/06/18 03:54:38;;;;;;;15.52;11.40;;;14.50;99.90;;;;;;5062745;28;20202;-81
2023/06/18 03:57:04;;;;;;;15.10;10.45;;;14.50;99.90;;;;;;5062483;28;20178;-82
2023/06/18 03:59:31;;;;;;;14.02;11.23;;;14.40;99.90;;;;;;5079593;28;20174;-83
2023/06/18 04:01:57;;;;;;;13.13;10.45;;;14.30;99.90;;;;;;5063071;28;20574;-83
2023/06/18 04:04:23;;;;;;;11.70;9.23;;;14.30;99.90;;;;;;5061912;28;20206;-83
2023/06/18 04:06:48;;;;;;;12.82;10.00;;;14.20;99.90;;;;;;5080497;28;20185;-84
2023/06/18 04:09:15;;;;;;;15.32;10.35;;;14.30;99.90;;;;;;5063139;28;20283;-83
2023/06/18 04:11:42;;;;;;;13.13;10.65;;;14.20;99.90;;;;;;5061691;28;20184;-83
2023/06/18 04:14:09;;;;;;;16.13;10.65;;;14.20;99.90;;;;;;5061709;28;20208;-83
2023/06/18 04:16:34;;;;;;;13.15;10.45;;;14.20;99.90;;;;;;5062357;28;20554;-83
2023/06/18 04:19:01;;;;;;;13.65;10.77;;;14.10;99.90;;;;;;5079942;28;20173;-83
2023/06/18 04:21:26;;;;;;;15.48;11.48;;;14.20;99.90;;;;;;5061915;28;20290;-83
2023/06/18 04:23:56;;;;;;;24.02;12.32;;;14.30;99.90;;;;;;5079712;28;20170;-83
2023/06/18 04:26:22;;;;;;;17.58;11.45;;;14.40;99.90;;;;;;5079634;28;20198;-83
2023/06/18 04:28:50;;;;;;;21.25;12.57;;;14.50;99.90;;;;;;5079606;28;20178;-83
2023/06/18 04:31:15;;;;;;;15.95;12.05;;;14.60;99.90;;;;;;5061670;28;20178;-83
2023/06/18 04:33:41;;;;;;;16.08;12.18;;;14.70;99.90;;;;;;5060857;28;20658;-83
2023/06/18 04:36:07;;;;;;;16.77;11.65;;;14.80;99.90;;;;;;5061633;28;20202;-83
2023/06/18 04:38:33;;;;;;;17.92;11.38;;;14.90;99.90;;;;;;5079750;28;20209;-83
2023/06/18 04:40:58;;;;;;;17.00;12.52;;;15.00;99.90;;;;;;5080507;28;20214;-83
2023/06/18 04:43:24;;;;;;;14.63;10.70;;;15.00;99.90;;;;;;5079355;28;20182;-82
2023/06/18 04:45:51;;;;;;;15.48;10.93;;;14.90;99.90;;;;;;5061521;28;20220;-83
2023/06/18 04:48:18;;;;;;;13.82;9.68;;;14.80;99.90;;;;;;5061534;28;20169;-83
2023/06/18 04:50:44;;;;;;;14.80;10.80;;;14.90;99.90;;;;;;5061198;28;20265;-83
2023/06/18 04:53:10;;;;;;;17.48;10.52;;;14.90;99.90;;;;;;5061295;28;20184;-83
2023/06/18 04:55:36;;;;;;;13.93;10.77;;;14.90;99.90;;;;;;5078667;28;20208;-83
2023/06/18 04:58:04;;;;;;;14.50;10.10;;;15.00;99.90;;;;;;5060353;28;20181;-83
2023/06/18 05:00:31;;;;;;;19.02;10.73;;;15.00;99.90;;;;;;5078897;28;20252;-83
2023/06/18 05:02:59;;;;;;;12.60;9.55;;;15.20;99.90;;;;;;5061944;28;20181;-83
2023/06/18 05:05:26;;;;;;;13.15;9.98;;;15.20;99.90;;;;;;5061157;28;20689;-83
2023/06/18 05:07:52;;;;;;;13.48;10.57;;;15.20;99.90;;;;;;5061018;28;20186;-83
2023/06/18 05:10:18;;;;;;;13.25;10.15;;;15.30;99.90;;;;;;5061554;28;20525;-82
2023/06/18 05:12:43;;;;;;;12.02;10.27;;;15.40;99.90;;;;;;5078754;28;20238;-83
2023/06/18 05:15:09;;;;;;;14.55;9.95;;;15.40;99.90;;;;;;5079319;28;20193;-83
2023/06/18 05:17:35;;;;;;;15.57;10.60;;;15.50;99.90;;;;;;5079121;28;20180;-84
2023/06/18 05:20:03;;;;;;;16.60;9.93;;;15.50;99.90;;;;;;5078906;28;20185;-83
2023/06/18 05:22:30;;;;;;;14.05;9.15;;;15.60;99.90;;;;;;5061345;28;20200;-83
2023/06/18 05:24:59;;;;;;;13.43;9.45;;;15.60;99.90;;;;;;5078974;28;20205;-83
2023/06/18 05:27:28;;;;;;;13.10;10.13;;;15.80;99.90;;;;;;5059960;28;20208;-83
2023/06/18 05:29:55;;;;;;;14.93;10.88;;;15.90;99.90;;;;;;5060049;28;20273;-81
2023/06/18 05:32:21;;;;;;;15.60;10.88;;;16.00;99.90;;;;;;5077940;28;20181;-79
2023/06/18 05:34:47;;;;;;;12.65;10.38;;;16.10;99.90;;;;;;5057029;28;20559;-78
2023/06/18 05:37:13;;;;;;;12.82;9.88;;;16.10;99.90;;;;;;5056709;28;20185;-79
2023/06/18 05:39:39;;;;;;;11.30;9.02;;;16.20;99.90;;;;;;5057659;28;20182;-79
2023/06/18 05:42:06;;;;;;;12.82;9.63;;;16.30;99.90;;;;;;5057941;28;20173;-78
2023/06/18 05:44:32;;;;;;;13.18;10.10;;;16.40;99.90;;;;;;5074608;28;20210;-77
2023/06/18 05:46:57;;;;;;;12.85;9.93;;;16.50;99.90;;;;;;5057290;28;20564;-78
2023/06/18 05:49:23;;;;;;;13.93;10.02;;;16.50;99.90;;;;;;5057732;28;20169;-78
2023/06/18 05:51:49;;;;;;;12.52;9.32;;;16.60;99.90;;;;;;5057387;28;20222;-78
2023/06/18 05:54:15;;;;;;;16.77;9.75;;;16.80;99.90;;;;;;5057227;28;20178;-78
2023/06/18 05:56:40;;;;;;;11.43;8.80;;;16.90;99.90;;;;;;5075787;28;20656;-78
2023/06/18 05:59:06;;;;;;;11.93;8.55;;;17.00;99.90;;;;;;5057278;28;20177;-78
2023/06/18 06:01:33;;;;;;;12.20;9.35;;;17.10;99.90;;;;;;5076033;28;20166;-78
2023/06/18 06:04:00;;;;;;;11.57;8.27;;;17.30;99.90;;;;;;5057162;28;20638;-78
2023/06/18 06:06:26;;;;;;;9.65;8.05;;;17.40;99.90;;;;;;5075509;28;20235;-78
2023/06/18 06:08:52;;;;;;;10.20;7.68;;;17.60;99.90;;;;;;5075191;28;20170;-79
2023/06/18 06:11:19;;;;;;;12.43;9.00;;;17.70;99.90;;;;;;5075275;28;20194;-78
2023/06/18 06:13:45;;;;;;;9.98;8.65;;;17.80;99.90;;;;;;5056856;28;20174;-78
2023/06/18 06:16:11;;;;;;;10.43;7.95;;;18.00;99.90;;;;;;5075069;28;20684;-78
2023/06/18 06:18:37;;;;;;;14.52;8.93;;;18.10;99.90;;;;;;5074857;28;20162;-79
2023/06/18 06:21:03;;;;;;;13.27;9.52;;;18.20;99.90;;;;;;5074712;28;20205;-78
2023/06/18 06:23:30;;;;;;;10.15;8.45;;;18.20;99.90;;;;;;5076006;28;20181;-79
2023/06/18 06:25:56;;;;;;;10.68;8.18;;;18.30;99.90;;;;;;5057018;28;20209;-78
2023/06/18 06:28:22;;;;;;;16.33;9.95;;;18.40;99.90;;;;;;5074801;28;20185;-78
2023/06/18 06:30:48;;;;;;;11.30;8.68;;;18.40;99.90;;;;;;5074158;28;20176;-79
2023/06/18 06:33:14;;;;;;;10.10;8.25;;;18.50;99.90;;;;;;5074090;28;20185;-78
2023/06/18 06:35:40;;;;;;;14.20;9.32;;;18.50;99.90;;;;;;5074147;28;20233;-78
2023/06/18 06:38:06;;;;;;;10.35;9.13;;;18.60;99.90;;;;;;5074207;28;20181;-78
2023/06/18 06:40:31;;;;;;;14.52;9.38;;;18.70;99.90;;;;;;5075787;28;20190;-78
2023/06/18 06:42:58;;;;;;;10.93;9.13;;;18.80;99.90;;;;;;5076823;28;20193;-78
2023/06/18 06:45:24;;;;;;;15.75;9.60;;;18.90;99.90;;;;;;5077142;28;20227;-78
2023/06/18 06:47:49;;;;;;;13.48;9.18;;;19.00;99.90;;;;;;5058975;28;20191;-78
2023/06/18 06:50:16;;;;;;;12.43;9.32;;;19.00;99.90;;;;;;5077121;28;20534;-78
2023/06/18 06:52:42;;;;;;;12.50;9.88;;;19.10;99.90;;;;;;5076628;28;20249;-77
2023/06/18 06:55:08;;;;;;;12.43;9.15;;;19.20;99.90;;;;;;5058826;28;20194;-78
2023/06/18 06:57:34;;;;;;;12.93;8.73;;;19.30;99.90;;;;;;5059217;28;20588;-76
2023/06/18 07:00:00;;;;;;;19.13;9.05;;;19.40;99.90;;;;;;5076457;28;20181;-78
2023/06/18 07:02:27;;;;;;;23.20;12.75;;;19.50;99.90;;;;;;5078094;28;20181;-78
2023/06/18 07:04:53;;;;;;;13.65;11.45;;;19.40;99.90;;;;;;5062962;28;20220;-79
2023/06/18 07:07:18;;;;;;;14.43;12.07;;;19.00;99.90;;;;;;5065840;28;20201;-78
2023/06/18 07:09:44;;;;;;;12.98;11.63;;;18.70;99.90;;;;;;5081821;28;20543;-79
2023/06/18 07:12:11;;;;;;;13.90;11.70;;;18.50;99.90;;;;;;5078016;28;20584;-79
2023/06/18 07:14:37;;;;;;;18.27;12.82;;;18.40;99.90;;;;;;5078335;28;20198;-78
2023/06/18 07:17:03;;;;;;;18.25;13.45;;;18.30;99.90;;;;;;5071927;28;20177;-79
2023/06/18 07:19:28;;;;;;;14.98;12.65;;;18.20;99.90;;;;;;5067340;28;20375;-78
2023/06/18 07:21:54;;;;;;;18.33;13.55;;;18.20;99.90;;;;;;5084887;28;20198;-78
2023/06/18 07:24:20;;;;;;;18.35;12.82;;;18.10;99.90;;;;;;5080876;28;20195;-78
2023/06/18 07:26:46;;;;;;;15.40;13.20;;;18.10;99.90;;;;;;5058816;28;20650;-78
2023/06/18 07:29:12;;;;;;;16.77;13.02;;;18.10;99.90;;;;;;5077726;28;20173;-79
2023/06/18 07:31:38;;;;;;;16.98;12.98;;;18.10;99.90;;;;;;5059277;28;20178;-79
2023/06/18 07:34:04;;;;;;;14.75;12.43;;;18.20;99.90;;;;;;5058789;28;20580;-79
2023/06/18 07:36:30;;;;;;;14.95;12.18;;;18.20;99.90;;;;;;5059081;28;20263;-79
2023/06/18 07:38:58;;;;;;;14.77;12.90;;;18.30;99.90;;;;;;5076574;28;20158;-79
2023/06/18 07:41:24;;;;;;;15.82;13.23;;;18.40;99.90;;;;;;5058651;28;20269;-79
2023/06/18 07:43:50;;;;;;;15.32;12.93;;;18.50;99.90;;;;;;5058164;28;20219;-79
2023/06/18 07:46:16;;;;;;;15.40;12.98;;;18.60;99.90;;;;;;5076088;28;20290;-77
2023/06/18 07:48:42;;;;;;;19.23;13.77;;;18.60;99.90;;;;;;5076170;28;20174;-78
2023/06/18 07:51:07;;;;;;;16.95;13.52;;;18.60;99.90;;;;;;5075758;28;20224;-78
2023/06/18 07:53:33;;;;;;;14.70;12.63;;;18.70;99.90;;;;;;5075805;28;20209;-78
2023/06/18 07:56:00;;;;;;;19.85;14.20;;;18.70;99.90;;;;;;5057676;28;20251;-78
2023/06/18 07:58:25;;;;;;;17.02;13.70;;;18.90;99.90;;;;;;5057841;28;20266;-77
2023/06/18 08:00:51;;;;;;;14.73;12.35;;;19.00;99.90;;;;;;5057939;28;20650;-78
2023/06/18 08:03:17;;;;;;;15.38;12.68;;;19.10;99.90;;;;;;5075776;28;20247;-78
2023/06/18 08:05:43;;;;;;;15.75;12.80;;;19.20;99.90;;;;;;5075281;28;20213;-78
2023/06/18 08:08:09;;;;;;;16.15;12.90;;;19.40;99.90;;;;;;5074997;28;20528;-78
2023/06/18 08:10:34;;;;;;;17.70;13.57;;;19.40;99.90;;;;;;5057332;28;20229;-78
2023/06/18 08:13:00;;;;;;;15.55;11.55;;;19.30;99.90;;;;;;5075290;28;20178;-77
2023/06/18 08:15:26;;;;;;;16.42;11.85;;;19.40;99.90;;;;;;5075365;28;20199;-77
2023/06/18 08:17:52;;;;;;;16.45;11.88;;;19.40;99.90;;;;;;5057780;28;20195;-78
2023/06/18 08:20:18;;;;;;;13.90;11.40;;;19.40;99.90;;;;;;5057086;28;20178;-78
2023/06/18 08:22:44;;;;;;;12.57;10.00;;;19.10;99.90;;;;;;5057066;28;20310;-78
2023/06/18 08:25:10;;;;;;;12.80;10.23;;;19.20;99.90;;;;;;5074863;28;20288;-78
2023/06/18 08:27:36;;;;;;;14.15;10.88;;;19.30;99.90;;;;;;5057074;28;20182;-78
2023/06/18 08:30:03;;;;;;;11.10;9.90;;;19.40;99.90;;;;;;5074981;28;20164;-78
2023/06/18 08:32:29;;;;;;;11.15;9.60;;;19.60;99.90;;;;;;5075033;28;20533;-79
2023/06/18 08:34:54;;;;;;;11.95;8.55;;;19.70;99.90;;;;;;5074946;28;20206;-77
2023/06/18 08:37:20;;;;;;;11.48;8.90;;;20.00;99.90;;;;;;5057280;28;20181;-78
2023/06/18 08:39:46;;;;;;;11.27;8.55;;;20.30;99.90;;;;;;5057245;28;20256;-78
2023/06/18 08:42:17;;;;;;;9.85;8.13;;;20.50;99.90;;;;;;5057029;28;20592;-78
2023/06/18 08:44:45;;;;;;;12.15;8.68;;;20.70;99.90;;;;;;5074558;28;20640;-78
2023/06/18 08:47:12;;;;;;;13.05;8.15;;;20.90;99.90;;;;;;5074689;28;20192;-79
2023/06/18 08:49:41;;;;;;;9.55;7.85;;;21.20;99.90;;;;;;5074732;28;20169;-78
2023/06/18 08:52:12;;;;;;;10.68;8.80;;;21.40;6.30;;;;;;5074836;28;20197;-78
2023/06/18 08:54:38;;;;;;;10.25;7.07;;;21.50;7.80;;;;;;5058796;28;20197;-81
2023/06/18 08:57:19;;;;;;;9.48;6.47;;;21.70;1.00;;;;;;5058408;28;20182;-81
2023/06/18 08:59:46;;;;;;;7.97;6.63;;;21.90;1.00;;;;;;5074678;28;20182;-81
2023/06/18 09:02:13;;;;;;;11.23;6.50;;;22.00;91.60;;;;;;5057376;28;20261;-81
2023/06/18 09:04:39;;;;;;;11.38;7.07;;;22.20;69.00;;;;;;5075060;28;20712;-80
2023/06/18 09:07:06;;;;;;;8.60;6.85;;;22.60;99.90;;;;;;5075187;28;20189;-80
2023/06/18 09:09:32;;;;;;;9.02;6.78;;;22.90;1.00;;;;;;5075472;28;20170;-81
2023/06/18 09:11:59;;;;;;;9.02;6.40;;;23.00;1.00;;;;;;5057631;28;20178;-81
2023/06/18 09:14:25;;;;;;;7.40;5.97;;;23.20;99.90;;;;;;5076086;28;20180;-81
2023/06/18 09:16:54;;;;;;;9.07;6.40;;;23.50;1.00;;;;;;5077906;28;20197;-78
2023/06/18 09:19:20;;;;;;;9.20;6.30;;;23.80;52.70;;;;;;5075825;28;20176;-78
2023/06/18 09:21:47;;;;;;;8.00;6.30;;;24.00;1.00;;;;;;5058722;28;20197;-76
2023/06/18 09:24:18;;;;;;;8.10;6.03;;;24.30;1.00;;;;;;5057268;28;20238;-77
2023/06/18 09:26:51;;;;;;;8.60;6.57;;;24.50;1.00;;;;;;5074501;28;20223;-76
2023/06/18 09:29:16;;;;;;;8.60;6.68;;;24.60;1.00;;;;;;5058088;28;20594;-82
2023/06/18 09:31:47;;;;;;;8.95;6.20;;;24.90;1.00;;;;;;5077345;28;20162;-81
2023/06/18 09:34:17;;;;;;;7.35;6.28;;;25.00;1.00;;;;;;5076396;28;20154;-80
2023/06/18 09:36:45;;;;;;;8.82;6.38;;;25.20;1.00;;;;;;5075630;28;20208;-80
2023/06/18 09:39:25;;;;;;;8.05;6.93;;;25.40;1.00;;;;;;5057772;28;20173;-82
2023/06/18 09:41:55;;;;;;;8.25;6.80;;;25.60;1.00;;;;;;5058742;28;20666;-81
2023/06/18 09:44:22;;;;;;;8.48;6.45;;;25.90;1.00;;;;;;5076739;28;20662;-80
2023/06/18 09:46:50;;;;;;;8.18;6.45;;;26.10;1.00;;;;;;5077350;28;20166;-81
2023/06/18 09:49:18;;;;;;;7.63;6.15;;;26.20;1.00;;;;;;5058405;28;20178;-81
2023/06/18 09:51:44;;;;;;;7.75;5.85;;;26.30;1.00;;;;;;5077174;28;20172;-81
2023/06/18 09:54:10;;;;;;;7.50;6.10;;;26.40;1.00;;;;;;5058193;28;20595;-81
2023/06/18 09:56:38;;;;;;;9.05;6.57;;;26.50;1.00;;;;;;5076219;28;20194;-81
2023/06/18 09:59:04;;;;;;;10.13;6.13;;;26.60;1.00;;;;;;5076669;28;20201;-82
2023/06/18 10:01:50;;;;;;;9.13;6.13;;;26.70;1.00;;;;;;5058080;28;20223;-80
2023/06/18 10:04:17;;;;;;;6.93;5.97;;;26.90;1.00;;;;;;5057305;28;20713;-79
2023/06/18 10:06:51;;;;;;;8.48;6.00;;;27.00;1.00;;;;;;5075139;28;20193;-79
2023/06/18 10:09:19;;;;;;;7.70;5.78;;;27.20;1.00;;;;;;5075513;28;20519;-79
2023/06/18 10:11:47;;;;;;;7.47;5.72;;;27.30;1.00;;;;;;5075196;28;20166;-79
2023/06/18 10:14:16;;;;;;;7.88;6.15;;;27.50;1.00;;;;;;5058291;28;20201;-79
2023/06/18 10:16:48;;;;;;;8.18;5.88;;;27.70;1.00;;;;;;5061177;28;20185;-79
2023/06/18 10:19:30;;;;;;;6.97;5.57;;;27.80;1.00;;;;;;5061421;28;20201;-79
2023/06/18 10:22:00;;;;;;;8.98;6.32;;;27.90;1.00;;;;;;5079035;28;20178;-79
2023/06/18 10:24:50;;;;;;;8.35;6.43;;;27.90;1.00;;;;;;5060822;28;20180;-79
2023/06/18 10:27:16;;;;;;;8.75;6.40;;;28.00;1.00;;;;;;5079211;28;20192;-79
2023/06/18 10:29:42;;;;;;;8.05;5.78;;;28.00;1.00;;;;;;5061316;28;20177;-79
2023/06/18 10:32:10;;;;;;;10.02;6.68;;;28.10;1.00;;;;;;5079313;28;20204;-79
2023/06/18 10:34:39;;;;;;;7.97;5.95;;;28.10;1.00;;;;;;5079030;28;20194;-78
2023/06/18 10:37:06;;;;;;;7.53;5.90;;;28.10;1.00;;;;;;5079159;28;20190;-79
2023/06/18 10:39:34;;;;;;;7.53;5.55;;;28.30;1.00;;;;;;5079162;28;20170;-79
2023/06/18 10:42:12;;;;;;;7.80;5.90;;;28.40;1.00;;;;;;5061421;28;20174;-79
2023/06/18 10:44:58;;;;;;;8.07;5.90;;;28.60;1.00;;;;;;5061442;28;20220;-79
2023/06/18 10:47:31;;;;;;;7.90;6.40;;;28.60;1.00;;;;;;5061843;28;20205;-79
2023/06/18 10:50:03;;;;;;;12.32;5.65;;;28.60;1.00;;;;;;5061771;28;20177;-78
2023/06/18 10:52:37;;;;;;;7.05;5.43;;;28.80;1.00;;;;;;5061223;28;20185;-79
2023/06/18 10:55:12;;;;;;;7.07;5.97;;;29.00;1.00;;;;;;5061225;28;20248;-79
2023/06/18 10:57:43;;;;;;;9.90;6.13;;;29.20;1.00;;;;;;5061881;28;20166;-79
2023/06/18 11:00:29;;;;;;;7.03;5.28;;;29.40;1.00;;;;;;5079045;28;20201;-79
2023/06/18 11:03:04;;;;;;;7.82;5.72;;;29.40;1.00;;;;;;5061061;28;20231;-79
2023/06/18 11:05:32;;;;;;;7.43;5.90;;;29.30;1.00;;;;;;5078531;28;20243;-78
2023/06/18 11:08:00;;;;;;;9.15;6.53;;;29.10;1.00;;;;;;5079134;28;20510;-79
2023/06/18 11:10:34;;;;;;;8.43;6.18;;;29.20;1.00;;;;;;5079231;28;20173;-78
2023/06/18 11:13:03;;;;;;;6.72;5.78;;;29.20;1.00;;;;;;5061408;28;20170;-79
2023/06/18 11:15:28;;;;;;;8.32;6.47;;;29.30;1.00;;;;;;5062478;28;20198;-78
2023/06/18 11:17:55;;;;;;;6.53;5.15;;;29.50;1.00;;;;;;5062501;28;20193;-79
2023/06/18 11:20:23;;;;;;;10.55;7.15;;;29.50;1.00;;;;;;5058843;28;20668;-79
2023/06/18 11:22:55;;;;;;;7.65;5.50;;;29.30;1.00;;;;;;5059386;28;20227;-78
2023/06/18 11:25:21;;;;;;;6.95;5.88;;;29.10;1.00;;;;;;5058677;28;20304;-78
2023/06/18 11:27:50;;;;;;;7.88;5.68;;;29.10;1.00;;;;;;5059319;28;20205;-78
2023/06/18 11:30:18;;;;;;;8.13;6.25;;;29.10;1.00;;;;;;5076753;28;20178;-79
2023/06/18 11:32:45;;;;;;;7.03;5.68;;;29.20;1.00;;;;;;5077220;28;20233;-79
2023/06/18 11:35:12;;;;;;;6.80;5.78;;;29.20;1.00;;;;;;5076775;28;20198;-78
2023/06/18 11:37:39;;;;;;;8.18;6.30;;;29.50;1.00;;;;;;5058465;28;20209;-79
2023/06/18 11:40:07;;;;;;;9.00;6.13;;;29.60;1.00;;;;;;5076576;28;20177;-79
2023/06/18 11:42:33;;;;;;;7.20;5.13;;;29.50;1.00;;;;;;5076402;28;20188;-79
2023/06/18 11:45:04;;;;;;;8.20;6.20;;;29.70;1.00;;;;;;5076487;28;20205;-78
2023/06/18 11:47:31;;;;;;;8.30;6.05;;;29.80;1.00;;;;;;5077148;28;20154;-79
2023/06/18 11:49:57;;;;;;;7.15;5.82;;;30.00;1.00;;;;;;5058431;28;20203;-79
2023/06/18 11:52:26;;;;;;;6.97;5.70;;;29.90;1.00;;;;;;5058568;28;20272;-79
2023/06/18 11:54:56;;;;;;;8.43;6.00;;;30.20;1.00;;;;;;5076596;28;20216;-79
2023/06/18 11:57:23;;;;;;;10.52;5.70;;;30.40;1.00;;;;;;5058712;28;20174;-79
2023/06/18 11:59:53;;;;;;;8.63;6.57;;;30.70;1.00;;;;;;5076856;28;20181;-79
2023/06/18 12:02:28;;;;;;;8.15;5.57;;;30.70;1.00;;;;;;5058940;28;20238;-79
2023/06/18 12:05:04;;;;;;;8.27;6.00;;;30.80;1.00;;;;;;5058134;28;20213;-80
2023/06/18 12:07:31;;;;;;;7.30;6.05;;;31.00;1.00;;;;;;5058202;28;20212;-79
2023/06/18 12:09:58;;;;;;;7.75;5.75;;;31.10;1.00;;;;;;5058613;28;20261;-79
2023/06/18 12:12:57;;;;;;;7.68;6.05;;;31.20;1.00;;;;;;5076961;28;20178;-79
2023/06/18 12:15:26;;;;;;;7.38;5.70;;;31.20;1.00;;;;;;5058539;28;20206;-80
2023/06/18 12:18:05;;;;;;;7.95;5.63;;;31.20;1.00;;;;;;5076589;28;20174;-79
2023/06/18 12:20:31;;;;;;;6.65;5.95;;;31.40;1.00;;;;;;5076814;28;20178;-79
2023/06/18 12:22:59;;;;;;;8.38;5.63;;;31.40;1.00;;;;;;5077645;28;20170;-79
2023/06/18 12:25:27;;;;;;;7.82;6.07;;;31.20;1.00;;;;;;5077523;28;20205;-79
2023/06/18 12:27:59;;;;;;;8.88;6.32;;;31.10;1.00;;;;;;5075673;28;20187;-77
2023/06/18 12:30:30;;;;;;;6.63;5.85;;;31.10;1.00;;;;;;5074871;28;20178;-78
2023/06/18 12:33:10;;;;;;;6.43;5.47;;;31.40;1.00;;;;;;5057170;28;20182;-78
2023/06/18 12:35:37;;;;;;;6.82;5.72;;;31.70;1.00;;;;;;5074588;28;20682;-78
2023/06/18 12:38:08;;;;;;;9.07;5.57;;;31.90;1.00;;;;;;5056626;28;20564;-78
2023/06/18 12:40:46;;;;;;;6.88;5.72;;;32.20;1.00;;;;;;5075538;28;20181;-78
2023/06/18 12:43:13;;;;;;;9.07;6.35;;;32.30;1.00;;;;;;5057396;28;20173;-78